Time;durP1;ratioP1;P1;durP2;ratioP2;P2;SDS_P1;SDS_P2;PMS_P1;PMS_P2;Temp;Humidity;BMP_temperature;BMP_pressure;BME280_temperature;BME280_humidity;BME280_pressure;Samples;Min_cycle;Max_cycle;Signal;HPM_P1;HPM_P2
2023/03/23 00:01:56;;;;;;;69.38;37.03;;;;;;;7.15;80.14;95152.38;4989844;28;20041;-79
2023/03/23 00:04:22;;;;;;;74.35;38.50;;;;;;;7.38;79.69;95192.66;4989349;28;20100;-78
2023/03/23 00:06:49;;;;;;;77.57;39.15;;;;;;;7.30;79.71;95178.88;4989976;28;20342;-78
2023/03/23 00:09:14;;;;;;;69.65;38.58;;;;;;;6.94;79.75;95130.31;4989799;28;20042;-78
2023/03/23 00:11:41;;;;;;;73.45;37.67;;;;;;;6.96;81.08;95140.59;4972374;28;20038;-78
2023/03/23 00:14:12;;;;;;;71.18;37.92;;;;;;;7.57;81.12;95228.13;4971917;28;20425;-78
2023/03/23 00:16:40;;;;;;;79.43;41.03;;;;;;;7.22;80.71;95173.25;4972420;28;20734;-80
2023/03/23 00:19:08;;;;;;;68.57;37.97;;;;;;;7.17;79.82;95173.22;4968726;28;20138;-79
2023/03/23 00:21:36;;;;;;;84.00;39.95;;;;;;;7.46;79.65;95232.56;4967451;28;20042;-78
2023/03/23 00:24:17;;;;;;;70.35;38.58;;;;;;;7.40;79.76;95235.41;4989709;28;20417;-78
2023/03/23 00:26:47;;;;;;;74.18;38.65;;;;;;;7.41;79.70;95239.63;4971604;28;20069;-78
2023/03/23 00:29:16;;;;;;;78.75;38.35;;;;;;;6.69;79.37;95161.72;4972065;28;20066;-78
2023/03/23 00:31:46;;;;;;;74.38;38.35;;;;;;;7.12;79.73;95239.91;4988758;28;20034;-78
2023/03/23 00:34:19;;;;;;;72.05;38.63;;;;;;;7.01;80.51;95238.22;4989402;28;20045;-78
2023/03/23 00:36:50;;;;;;;77.32;39.92;;;;;;;7.16;80.42;95242.84;4989885;28;20058;-79
2023/03/23 00:39:17;;;;;;;81.22;41.90;;;;;;;7.20;80.45;95247.38;4971897;28;20046;-78
2023/03/23 00:41:44;;;;;;;91.35;45.17;;;;;;;7.25;80.93;95246.59;4973698;28;20530;-79
2023/03/23 00:44:09;;;;;;;100.63;48.28;;;;;;;6.61;80.97;95142.94;4975102;28;20045;-78
2023/03/23 00:46:44;;;;;;;104.85;54.08;;;;;;;6.98;81.51;95202.59;4993437;28;20057;-79
2023/03/23 00:49:12;;;;;;;114.72;57.47;;;;;;;6.88;81.68;95193.78;4992668;28;20121;-79
2023/03/23 00:51:37;;;;;;;108.35;54.63;;;;;;;7.34;82.20;95259.09;4993156;28;20089;-78
2023/03/23 00:54:03;;;;;;;110.82;57.05;;;;;;;7.08;82.64;95214.28;5010873;28;20412;-78
2023/03/23 00:56:28;;;;;;;145.02;55.78;;;;;;;7.07;82.57;95202.16;4993039;28;20022;-78
2023/03/23 00:58:54;;;;;;;140.20;54.58;;;;;;;7.11;82.23;95213.78;4993126;28;20824;-78
2023/03/23 01:01:19;;;;;;;146.82;57.97;;;;;;;6.99;82.70;95187.56;4993274;28;20030;-75
2023/03/23 01:03:45;;;;;;;135.52;55.70;;;;;;;7.00;82.96;95198.91;4993574;28;20054;-75
2023/03/23 01:06:14;;;;;;;131.90;58.72;;;;;;;7.53;82.70;95266.66;4975088;28;20057;-75
2023/03/23 01:08:46;;;;;;;139.27;56.42;;;;;;;7.33;82.55;95246.16;4975441;28;20030;-76
2023/03/23 01:11:15;;;;;;;135.50;54.22;;;;;;;7.32;82.68;95257.78;4975240;28;20416;-75
2023/03/23 01:13:42;;;;;;;149.23;51.63;;;;;;;7.08;82.81;95219.56;4974439;28;20509;-76
2023/03/23 01:16:10;;;;;;;120.28;48.28;;;;;;;6.66;82.83;95148.25;4992998;28;20249;-76
2023/03/23 01:18:36;;;;;;;114.28;47.42;;;;;;;7.17;83.09;95220.72;4992856;28;20061;-75
2023/03/23 01:21:11;;;;;;;114.70;43.75;;;;;;;7.24;82.87;95250.31;4992912;28;20050;-75
2023/03/23 01:23:37;;;;;;;164.18;45.55;;;;;;;6.24;83.92;95121.75;4985644;28;20089;-76
2023/03/23 01:26:07;;;;;;;174.73;45.70;;;;;;;6.55;83.55;95152.63;4974802;28;20034;-75
2023/03/23 01:28:34;;;;;;;295.95;47.50;;;;;;;7.22;83.52;95241.84;4992603;28;20077;-75
2023/03/23 01:31:05;;;;;;;217.13;44.22;;;;;;;7.24;83.67;95242.41;4992877;28;20054;-75
2023/03/23 01:33:31;;;;;;;188.82;46.72;;;;;;;7.22;83.71;95242.63;4975096;28;20128;-75
2023/03/23 01:35:57;;;;;;;118.15;41.83;;;;;;;6.85;84.65;95218.81;4992073;28;20090;-76
2023/03/23 01:38:23;;;;;;;119.78;43.70;;;;;;;6.78;85.50;95202.41;4992660;28;20042;-75
2023/03/23 01:40:48;;;;;;;78.32;40.67;;;;;;;6.78;85.40;95188.44;4993014;28;20030;-76
2023/03/23 01:43:15;;;;;;;80.40;41.13;;;;;;;6.94;85.57;95204.13;4975315;28;20121;-75
2023/03/23 01:45:41;;;;;;;81.93;40.83;;;;;;;7.18;84.88;95230.97;4992921;28;20038;-76
2023/03/23 01:48:16;;;;;;;78.07;40.60;;;;;;;7.31;84.85;95229.78;4971143;28;20042;-76
2023/03/23 01:50:51;;;;;;;76.95;40.97;;;;;;;7.13;84.72;95191.38;4989293;28;20069;-75
2023/03/23 01:53:17;;;;;;;77.80;40.47;;;;;;;7.03;84.56;95174.69;4991699;28;20536;-75
2023/03/23 01:55:48;;;;;;;74.30;39.80;;;;;;;7.46;84.49;95222.00;4992034;28;20042;-75
2023/03/23 01:58:15;;;;;;;80.47;41.00;;;;;;;7.16;84.24;95166.38;4989835;28;20042;-75
2023/03/23 02:00:42;;;;;;;75.65;39.88;;;;;;;7.22;84.45;95173.25;4992501;28;20037;-76
2023/03/23 02:03:09;;;;;;;80.15;41.00;;;;;;;7.60;84.56;95222.34;4974932;28;20479;-75
2023/03/23 02:05:41;;;;;;;76.40;40.60;;;;;;;7.41;84.77;95189.47;4992385;28;20041;-75
2023/03/23 02:08:08;;;;;;;75.47;39.65;;;;;;;7.60;84.80;95203.88;4973633;28;20042;-76
2023/03/23 02:10:35;;;;;;;78.78;40.58;;;;;;;7.45;84.34;95162.34;4974376;28;20137;-75
2023/03/23 02:13:04;;;;;;;71.47;40.47;;;;;;;7.68;84.14;95206.06;4992202;28;20050;-75
2023/03/23 02:15:47;;;;;;;68.68;37.25;;;;;;;7.61;82.94;95205.47;4989920;28;20062;-75
2023/03/23 02:18:30;;;;;;;73.93;39.83;;;;;;;7.72;83.37;95222.97;4974116;28;20539;-76
2023/03/23 02:21:18;;;;;;;80.60;41.15;;;;;;;7.79;83.67;95215.59;4974345;28;20061;-75
2023/03/23 02:23:50;;;;;;;80.97;41.88;;;;;;;7.69;83.43;95205.00;4971304;28;20493;-75
2023/03/23 02:26:40;;;;;;;74.18;38.38;;;;;;;7.79;83.34;95223.53;4981425;28;20524;-76
2023/03/23 02:29:41;;;;;;;76.88;39.70;;;;;;;7.80;82.97;95222.50;4970119;28;20067;-75
2023/03/23 02:32:18;;;;;;;87.28;42.15;;;;;;;7.71;82.70;95222.16;4968687;28;20051;-75
2023/03/23 02:35:06;;;;;;;81.60;39.08;;;;;;;7.18;82.56;95167.69;4991825;28;20043;-75
2023/03/23 02:37:48;;;;;;;83.57;38.70;;;;;;;7.46;82.75;95214.09;4992202;28;20038;-76
2023/03/23 02:40:42;;;;;;;77.07;37.67;;;;;;;7.46;82.93;95232.56;4991291;28;20045;-75
2023/03/23 02:43:13;;;;;;;76.80;37.88;;;;;;;7.38;82.47;95248.03;4989774;28;20535;-75
2023/03/23 02:45:42;;;;;;;72.97;40.03;;;;;;;7.25;81.93;95214.94;4991908;28;20109;-75
2023/03/23 02:48:10;;;;;;;75.82;38.80;;;;;;;7.01;82.02;95184.69;4990955;28;20041;-75
2023/03/23 02:50:37;;;;;;;69.30;36.85;;;;;;;7.17;81.61;95247.09;4990975;28;20030;-77
2023/03/23 02:53:07;;;;;;;57.38;31.45;;;;;;;7.04;81.36;95244.81;4991190;28;20030;-77
2023/03/23 02:55:34;;;;;;;51.20;30.23;;;;;;;6.44;81.47;95158.84;4990911;28;20045;-77
2023/03/23 02:58:01;;;;;;;59.13;31.17;;;;;;;6.58;81.51;95168.72;4972850;28;20037;-77
2023/03/23 03:00:27;;;;;;;55.00;28.85;;;;;;;7.13;80.72;95241.50;4969581;28;20043;-77
2023/03/23 03:02:55;;;;;;;53.17;29.90;;;;;;;7.18;80.87;95265.28;4979827;28;20030;-77
2023/03/23 03:05:30;;;;;;;49.53;28.00;;;;;;;7.22;80.46;95262.94;4989465;28;20034;-77
2023/03/23 03:08:17;;;;;;;50.65;26.83;;;;;;;7.17;80.39;95273.47;4990775;28;20074;-77
2023/03/23 03:10:53;;;;;;;49.20;25.25;;;;;;;7.19;80.42;95277.41;4969701;28;20054;-77
2023/03/23 03:13:38;;;;;;;51.03;25.58;;;;;;;7.17;80.24;95273.47;4972827;28;20034;-77
2023/03/23 03:16:24;;;;;;;50.60;26.23;;;;;;;7.15;79.33;95271.06;4990670;28;20457;-77
2023/03/23 03:19:25;;;;;;;39.78;22.73;;;;;;;7.07;79.06;95278.63;4990444;28;20053;-77
2023/03/23 03:21:52;;;;;;;35.95;20.15;;;;;;;6.91;80.26;95267.91;4969770;28;20038;-77
2023/03/23 03:24:20;;;;;;;35.85;21.35;;;;;;;6.98;79.99;95276.44;4986331;28;20046;-77
2023/03/23 03:26:48;;;;;;;35.65;19.77;;;;;;;6.92;80.12;95281.91;4990532;28;20054;-77
2023/03/23 03:29:33;;;;;;;36.60;20.38;;;;;;;6.42;80.07;95208.34;4972574;28;20049;-77
2023/03/23 03:32:04;;;;;;;38.53;21.13;;;;;;;6.92;80.57;95282.69;4990534;28;20042;-77
2023/03/23 03:34:31;;;;;;;50.80;22.37;;;;;;;6.95;80.36;95284.81;4990131;28;20036;-76
2023/03/23 03:36:59;;;;;;;37.72;21.55;;;;;;;6.69;80.78;95246.06;4990291;28;20344;-76
2023/03/23 03:39:25;;;;;;;42.33;24.83;;;;;;;6.59;81.10;95235.41;4990080;28;20038;-77
2023/03/23 03:41:51;;;;;;;61.70;29.83;;;;;;;6.95;81.99;95286.66;4990149;28;20046;-76
2023/03/23 03:44:16;;;;;;;51.20;28.48;;;;;;;6.72;81.40;95250.81;4972376;28;20053;-76
2023/03/23 03:46:42;;;;;;;49.67;24.25;;;;;;;6.77;81.13;95247.47;4990005;28;20034;-76
2023/03/23 03:49:13;;;;;;;47.15;23.55;;;;;;;6.88;81.41;95262.34;4989831;28;20091;-76
2023/03/23 03:51:40;;;;;;;40.60;21.45;;;;;;;7.00;81.33;95283.31;4989427;28;20841;-76
2023/03/23 03:54:05;;;;;;;43.03;21.85;;;;;;;7.06;81.20;95282.31;4968925;28;20079;-76
2023/03/23 03:56:35;;;;;;;30.50;18.48;;;;;;;7.05;81.27;95278.88;4988728;28;20081;-77
2023/03/23 03:59:02;;;;;;;31.40;18.50;;;;;;;6.93;80.90;95257.94;4972926;28;20045;-77
2023/03/23 04:01:28;;;;;;;29.45;17.30;;;;;;;6.42;81.25;95182.00;4989766;28;20166;-76
2023/03/23 04:03:54;;;;;;;33.65;18.13;;;;;;;7.06;80.63;95277.81;4972254;28;20069;-76
2023/03/23 04:06:20;;;;;;;28.70;17.13;;;;;;;7.01;80.49;95264.59;4989682;28;20141;-76
2023/03/23 04:08:46;;;;;;;40.55;18.77;;;;;;;6.78;79.53;95235.88;4968804;28;20506;-77
2023/03/23 04:11:13;;;;;;;35.55;20.63;;;;;;;7.04;79.55;95265.94;4961639;28;20080;-77
2023/03/23 04:13:39;;;;;;;41.60;20.83;;;;;;;6.72;79.81;95231.59;4989754;28;20033;-77
2023/03/23 04:16:06;;;;;;;48.97;21.80;;;;;;;6.95;79.79;95270.84;4972746;28;20042;-76
2023/03/23 04:18:33;;;;;;;37.78;19.63;;;;;;;6.75;80.29;95239.81;4993224;28;20030;-77
2023/03/23 04:20:59;;;;;;;37.28;20.92;;;;;;;6.31;80.30;95175.03;4972255;28;20089;-76
2023/03/23 04:23:30;;;;;;;35.13;18.67;;;;;;;6.65;80.32;95231.78;4970843;28;20177;-77
2023/03/23 04:25:57;;;;;;;38.25;18.33;;;;;;;6.93;80.47;95273.75;4991649;28;20057;-77
2023/03/23 04:28:27;;;;;;;33.58;18.80;;;;;;;6.94;80.62;95282.47;4992036;28;20030;-77
2023/03/23 04:30:53;;;;;;;32.65;18.35;;;;;;;6.77;80.88;95243.00;4975776;28;20531;-77
2023/03/23 04:33:21;;;;;;;31.63;19.05;;;;;;;6.87;81.61;95276.56;4992425;28;20038;-77
2023/03/23 04:35:47;;;;;;;36.53;17.42;;;;;;;6.68;80.58;95239.19;4975190;28;20090;-77
2023/03/23 04:38:15;;;;;;;31.40;18.42;;;;;;;6.38;80.17;95197.50;4998861;28;20036;-76
2023/03/23 04:40:43;;;;;;;35.13;19.17;;;;;;;6.97;81.04;95284.59;4986664;28;20038;-76
2023/03/23 04:43:08;;;;;;;37.42;18.33;;;;;;;6.98;80.68;95286.19;4974517;28;20117;-76
2023/03/23 04:45:37;;;;;;;35.58;18.92;;;;;;;6.81;81.48;95262.53;4975247;28;20145;-77
2023/03/23 04:48:04;;;;;;;46.63;21.70;;;;;;;6.62;81.05;95223.59;4992949;28;20449;-77
2023/03/23 04:50:32;;;;;;;38.45;20.17;;;;;;;6.67;81.08;95224.44;4992726;28;20038;-77
2023/03/23 04:53:06;;;;;;;35.33;19.02;;;;;;;7.04;81.21;95284.38;5007673;28;20065;-77
2023/03/23 04:55:36;;;;;;;46.47;21.00;;;;;;;7.01;81.75;95277.78;4977693;28;20038;-77
2023/03/23 04:58:03;;;;;;;35.28;19.25;;;;;;;6.90;81.26;95250.50;4991878;28;20045;-77
2023/03/23 05:00:29;;;;;;;39.33;19.50;;;;;;;7.19;81.10;95303.00;4989559;28;20197;-77
2023/03/23 05:02:55;;;;;;;41.50;19.85;;;;;;;7.16;81.36;95303.50;4977999;28;20036;-76
2023/03/23 05:05:22;;;;;;;35.80;19.75;;;;;;;7.22;81.14;95303.31;4961289;28;20385;-77
2023/03/23 05:07:48;;;;;;;48.53;20.77;;;;;;;6.66;81.27;95206.22;4978918;28;20489;-77
2023/03/23 05:10:15;;;;;;;33.80;20.42;;;;;;;7.21;80.81;95291.16;4991506;28;20076;-77
2023/03/23 05:12:41;;;;;;;40.10;20.80;;;;;;;6.87;80.49;95239.66;4989507;28;20042;-77
2023/03/23 05:15:07;;;;;;;44.72;21.63;;;;;;;7.10;80.61;95307.91;4990160;28;20045;-78
2023/03/23 05:17:34;;;;;;;44.15;21.30;;;;;;;7.13;81.69;95311.91;4953222;28;20328;-77
2023/03/23 05:20:01;;;;;;;40.92;20.60;;;;;;;6.83;81.92;95267.56;4965300;28;20425;-78
2023/03/23 05:22:27;;;;;;;43.78;22.90;;;;;;;6.43;80.97;95196.75;4963666;28;20027;-77
2023/03/23 05:24:53;;;;;;;44.03;19.08;;;;;;;6.78;81.81;95299.16;4933211;28;20336;-78
2023/03/23 05:27:19;;;;;;;37.38;21.48;;;;;;;7.09;81.87;95313.47;4977090;28;20050;-77
2023/03/23 05:29:48;;;;;;;51.78;21.88;;;;;;;7.20;81.27;95318.56;4960691;28;20075;-78
2023/03/23 05:32:18;;;;;;;37.92;21.67;;;;;;;7.20;81.13;95323.06;4955705;28;20066;-78
2023/03/23 05:34:44;;;;;;;37.07;22.97;;;;;;;7.15;81.29;95325.66;4979861;28;20034;-78
2023/03/23 05:37:09;;;;;;;41.08;22.30;;;;;;;6.61;81.92;95240.44;4986098;28;20057;-78
2023/03/23 05:39:36;;;;;;;46.35;23.60;;;;;;;7.00;81.60;95331.56;4979007;28;20104;-76
2023/03/23 05:42:03;;;;;;;51.95;23.92;;;;;;;7.16;81.57;95327.25;4947028;28;20140;-77
2023/03/23 05:44:30;;;;;;;40.65;23.65;;;;;;;7.08;81.72;95315.31;4977039;28;20037;-77
2023/03/23 05:46:55;;;;;;;42.50;21.38;;;;;;;6.61;81.58;95293.94;4961898;28;20174;-77
2023/03/23 05:49:21;;;;;;;42.08;22.58;;;;;;;6.32;81.26;95231.94;4946510;28;20126;-76
2023/03/23 05:51:47;;;;;;;42.25;22.00;;;;;;;6.95;81.18;95327.00;4996929;28;20154;-78
2023/03/23 05:54:14;;;;;;;47.08;22.33;;;;;;;6.78;80.71;95270.16;4977421;28;20079;-77
2023/03/23 05:56:40;;;;;;;41.70;22.08;;;;;;;6.61;81.05;95243.06;4964047;28;20044;-79
2023/03/23 05:59:06;;;;;;;41.65;22.98;;;;;;;6.84;81.13;95277.88;4965547;28;20428;-80
2023/03/23 06:01:32;;;;;;;38.65;22.92;;;;;;;6.82;80.66;95253.59;4981560;28;20147;-79
2023/03/23 06:03:58;;;;;;;43.75;23.92;;;;;;;6.89;79.93;95256.03;4960693;28;20061;-81
2023/03/23 06:06:29;;;;;;;41.03;24.10;;;;;;;7.06;80.34;95284.94;4968557;28;20105;-78
2023/03/23 06:08:56;;;;;;;42.47;23.70;;;;;;;7.10;79.88;95280.75;4981999;28;20034;-77
2023/03/23 06:11:23;;;;;;;51.92;25.58;;;;;;;7.02;78.91;95262.75;4967275;28;20060;-80
2023/03/23 06:13:48;;;;;;;46.78;25.65;;;;;;;7.20;80.17;95352.88;4963486;28;20057;-81
2023/03/23 06:16:14;;;;;;;69.00;32.97;;;;;;;6.74;79.58;95272.47;4963123;28;20069;-80
2023/03/23 06:18:42;;;;;;;58.70;29.58;;;;;;;6.69;80.11;95253.97;4960904;28;20050;-80
2023/03/23 06:21:08;;;;;;;56.17;31.33;;;;;;;7.11;80.04;95319.25;4961525;28;20161;-78
2023/03/23 06:23:34;;;;;;;57.00;32.38;;;;;;;6.83;80.18;95272.84;4963496;28;20038;-78
2023/03/23 06:26:05;;;;;;;60.83;32.53;;;;;;;7.06;80.27;95304.19;4971453;28;20104;-78
2023/03/23 06:28:31;;;;;;;59.40;33.80;;;;;;;7.53;79.90;95351.88;4958806;28;20432;-79
2023/03/23 06:31:04;;;;;;;62.30;31.92;;;;;;;7.39;79.26;95324.31;4973832;28;20072;-78
2023/03/23 06:33:30;;;;;;;56.88;31.15;;;;;;;7.13;79.09;95254.69;4976556;28;20034;-79
2023/03/23 06:35:56;;;;;;;58.33;31.55;;;;;;;7.51;78.92;95324.16;4957403;28;20399;-79
2023/03/23 06:38:21;;;;;;;69.85;34.42;;;;;;;7.65;78.81;95343.81;4969387;28;20027;-78
2023/03/23 06:40:48;;;;;;;72.47;34.40;;;;;;;7.80;78.81;95345.78;4969457;28;20315;-77
2023/03/23 06:43:13;;;;;;;58.67;31.42;;;;;;;7.72;78.27;95320.63;4970249;28;20120;-80
2023/03/23 06:45:39;;;;;;;60.60;32.08;;;;;;;7.35;78.36;95262.53;4955922;28;20470;-77
2023/03/23 06:48:05;;;;;;;65.43;30.70;;;;;;;7.02;78.49;95228.47;4957118;28;20367;-77
2023/03/23 06:50:31;;;;;;;53.33;31.00;;;;;;;7.17;78.02;95242.56;4972179;28;20508;-77
2023/03/23 06:52:57;;;;;;;57.83;31.65;;;;;;;7.93;78.54;95364.66;4972863;28;20244;-78
2023/03/23 06:55:22;;;;;;;59.33;33.28;;;;;;;7.58;78.41;95314.97;4975184;28;20061;-79
2023/03/23 06:57:47;;;;;;;61.05;30.67;;;;;;;7.28;77.97;95257.47;4970433;28;20104;-78
2023/03/23 07:00:13;;;;;;;57.25;31.58;;;;;;;7.29;77.70;95260.91;4972931;28;20038;-79
2023/03/23 07:02:40;;;;;;;68.50;33.38;;;;;;;7.88;77.57;95358.53;4948217;28;20034;-82
2023/03/23 07:05:08;;;;;;;61.58;31.98;;;;;;;7.61;77.40;95308.41;4962980;28;20034;-78
2023/03/23 07:07:34;;;;;;;58.70;32.25;;;;;;;7.85;77.67;95359.03;4971703;28;20050;-77
2023/03/23 07:10:00;;;;;;;61.97;32.03;;;;;;;7.18;77.61;95257.34;4966811;28;20042;-79
2023/03/23 07:12:27;;;;;;;60.65;33.20;;;;;;;7.07;77.32;95231.16;4968743;28;20050;-80
2023/03/23 07:14:52;;;;;;;60.53;32.40;;;;;;;7.79;77.21;95305.38;4968438;28;20045;-78
2023/03/23 07:17:18;;;;;;;63.85;33.55;;;;;;;8.22;77.61;95365.13;4972442;28;20042;-80
2023/03/23 07:19:43;;;;;;;52.83;31.52;;;;;;;8.28;77.28;95368.59;4954572;28;20049;-78
2023/03/23 07:22:09;;;;;;;58.90;32.10;;;;;;;7.57;76.91;95241.31;4955677;28;20622;-79
2023/03/23 07:24:35;;;;;;;60.22;32.17;;;;;;;8.23;77.07;95365.94;4971375;28;20038;-79
2023/03/23 07:27:01;;;;;;;55.67;31.92;;;;;;;7.61;77.62;95274.09;4973107;28;20068;-79
2023/03/23 07:29:26;;;;;;;58.67;33.47;;;;;;;8.27;77.31;95361.72;4976512;28;20061;-79
2023/03/23 07:31:53;;;;;;;66.18;33.28;;;;;;;8.24;77.06;95336.59;4976787;28;20057;-79
2023/03/23 07:34:19;;;;;;;63.30;34.35;;;;;;;8.20;77.24;95324.97;4978745;28;20097;-79
2023/03/23 07:36:46;;;;;;;56.90;32.35;;;;;;;8.49;77.48;95357.94;4958158;28;20061;-79
2023/03/23 07:39:12;;;;;;;66.75;33.90;;;;;;;8.53;77.21;95366.16;4973463;28;20048;-79
2023/03/23 07:41:40;;;;;;;65.32;34.78;;;;;;;8.07;77.18;95305.06;4974820;28;20201;-79
2023/03/23 07:44:06;;;;;;;68.65;33.55;;;;;;;7.66;77.15;95251.16;4973817;28;20026;-79
2023/03/23 07:46:32;;;;;;;78.10;36.08;;;;;;;8.20;77.37;95310.94;4970010;28;20049;-78
2023/03/23 07:48:58;;;;;;;68.78;34.15;;;;;;;7.16;76.64;95130.25;4971885;28;20505;-78
2023/03/23 07:51:24;;;;;;;65.30;34.47;;;;;;;8.41;77.20;95344.41;4965224;28;20046;-81
2023/03/23 07:53:50;;;;;;;81.18;37.30;;;;;;;8.50;77.18;95332.28;4952994;28;20031;-81
2023/03/23 07:56:19;;;;;;;71.95;35.67;;;;;;;7.49;76.61;95158.16;4951887;28;20643;-85
2023/03/23 07:58:49;;;;;;;71.82;35.70;;;;;;;8.67;76.70;95348.78;4965879;28;20551;-83
2023/03/23 08:01:15;;;;;;;59.50;33.10;;;;;;;8.61;76.75;95317.28;4976412;28;20481;-82
2023/03/23 08:03:41;;;;;;;69.97;35.42;;;;;;;8.50;76.41;95301.38;4961410;28;20582;-83
2023/03/23 08:06:08;;;;;;;63.88;33.50;;;;;;;8.19;75.81;95264.44;4971538;28;20030;-81
2023/03/23 08:08:34;;;;;;;67.13;34.42;;;;;;;8.67;75.98;95322.34;4976311;28;20093;-80
2023/03/23 08:10:59;;;;;;;66.03;32.55;;;;;;;9.11;75.93;95380.97;4961395;28;20034;-79
2023/03/23 08:13:27;;;;;;;66.22;33.28;;;;;;;8.87;75.82;95321.63;4975705;28;20374;-78
2023/03/23 08:15:53;;;;;;;63.53;34.08;;;;;;;9.17;75.16;95369.34;4956221;28;20933;-78
2023/03/23 08:18:18;;;;;;;66.40;34.35;;;;;;;8.83;75.24;95308.13;4972166;28;20038;-78
2023/03/23 08:20:46;;;;;;;69.32;34.17;;;;;;;9.15;74.96;95339.75;4960593;28;20216;-79
2023/03/23 08:23:11;;;;;;;55.92;30.58;;;;;;;8.94;74.86;95287.78;4959236;28;20034;-79
2023/03/23 08:25:37;;;;;;;52.20;28.88;;;;;;;9.04;74.23;95281.75;4957887;28;20042;-78
2023/03/23 08:28:03;;;;;;;51.15;29.92;;;;;;;9.40;73.67;95324.94;4975868;28;20045;-78
2023/03/23 08:30:31;;;;;;;50.75;29.85;;;;;;;9.69;73.24;95371.06;4973953;28;20481;-79
2023/03/23 08:32:58;;;;;;;52.03;29.70;;;;;;;9.73;74.07;95371.34;4957534;28;20131;-79
2023/03/23 08:35:24;;;;;;;54.22;30.75;;;;;;;9.85;73.53;95370.03;4979644;28;20056;-78
2023/03/23 08:37:54;;;;;;;55.90;30.83;;;;;;;9.29;72.59;95269.38;4973970;28;20440;-78
2023/03/23 08:40:21;;;;;;;51.92;27.08;;;;;;;9.98;71.39;95364.22;4959499;28;20085;-78
2023/03/23 08:42:49;;;;;;;47.95;28.52;;;;;;;9.82;71.03;95319.44;4955261;28;20041;-78
2023/03/23 08:45:18;;;;;;;43.03;25.85;;;;;;;10.11;70.25;95364.75;4956209;28;20461;-78
2023/03/23 08:47:44;;;;;;;48.50;25.23;;;;;;;9.85;69.76;95338.25;4972221;28;20038;-78
2023/03/23 08:50:16;;;;;;;36.35;22.42;;;;;;;9.91;68.77;95339.84;4956363;28;20132;-78
2023/03/23 08:52:41;;;;;;;34.17;17.13;;;;;;;10.25;66.93;95368.47;4965754;28;20586;-80
2023/03/23 08:55:08;;;;;;;33.88;18.27;;;;;;;10.31;65.56;95364.75;4954122;28;20034;-81
2023/03/23 08:57:35;;;;;;;35.95;18.50;;;;;;;10.41;65.18;95364.75;4971577;28;20685;-83
2023/03/23 09:00:13;;;;;;;40.03;18.55;;;;;;;9.88;65.92;95273.34;4963423;28;20038;-78
2023/03/23 09:02:38;;;;;;;23.80;12.32;;;;;;;10.49;64.50;95348.31;4976909;28;20065;-78
2023/03/23 09:05:04;;;;;;;22.73;13.23;;;;;;;10.30;63.97;95310.94;4978964;28;20173;-78
2023/03/23 09:07:29;;;;;;;22.85;13.55;;;;;;;10.31;63.63;95314.41;4969668;28;20034;-78
2023/03/23 09:09:55;;;;;;;18.98;12.60;;;;;;;10.39;62.04;95321.81;4957892;28;20042;-78
2023/03/23 09:12:21;;;;;;;15.82;9.93;;;;;;;10.13;61.67;95264.59;4958116;28;20053;-77
2023/03/23 09:14:46;;;;;;;20.10;11.07;;;;;;;10.77;61.89;95345.03;4957271;28;20486;-77
2023/03/23 09:17:12;;;;;;;20.95;13.15;;;;;;;10.90;61.74;95367.56;4956544;28;20661;-78
2023/03/23 09:19:38;;;;;;;26.67;13.52;;;;;;;10.59;63.12;95303.22;4969214;28;20296;-77
2023/03/23 09:22:03;;;;;;;25.55;14.00;;;;;;;10.63;62.49;95306.91;4958575;28;20034;-79
2023/03/23 09:24:29;;;;;;;31.77;13.75;;;;;;;10.61;62.43;95282.50;4963087;28;20045;-80
2023/03/23 09:26:58;;;;;;;28.40;12.05;;;;;;;10.56;60.92;95276.41;4961835;28;20085;-79
2023/03/23 09:29:24;;;;;;;23.67;11.93;;;;;;;10.92;61.15;95311.56;4974167;28;20347;-79
2023/03/23 09:31:49;;;;;;;28.35;14.77;;;;;;;10.92;60.60;95301.75;4976946;28;20432;-80
2023/03/23 09:34:15;;;;;;;23.60;13.52;;;;;;;10.76;61.73;95258.56;4961797;28;20038;-80
2023/03/23 09:36:41;;;;;;;24.25;14.30;;;;;;;11.58;61.30;95354.50;4961250;28;20062;-79
2023/03/23 09:39:09;;;;;;;24.83;14.52;;;;;;;11.51;60.78;95316.84;4953416;28;20040;-80
2023/03/23 09:42:08;;;;;;;23.40;12.23;;;;;;;11.87;60.77;95346.66;4954344;28;20133;-77
2023/03/23 09:45:12;;;;;;;25.75;12.27;;;;;;;11.90;58.10;95351.41;4971732;28;20121;-78
2023/03/23 09:48:19;;;;;;;19.75;12.45;;;;;;;11.97;58.42;95341.25;4978073;28;20795;-78
2023/03/23 09:50:48;;;;;;;17.48;10.15;;;;;;;11.56;59.39;95261.03;4958821;28;20807;-78
2023/03/23 09:53:20;;;;;;;20.85;9.57;;;;;;;12.11;59.46;95342.22;4959763;28;20085;-79
2023/03/23 09:55:48;;;;;;;15.15;8.30;;;;;;;11.57;56.10;95252.00;4955622;28;20049;-80
2023/03/23 09:58:55;;;;;;;12.05;8.23;;;;;;;11.59;56.52;95255.16;4961158;28;20073;-80
2023/03/23 10:01:39;;;;;;;17.13;9.73;;;;;;;12.18;56.47;95316.09;4980116;28;20035;-79
2023/03/23 10:04:31;;;;;;;15.75;8.57;;;;;;;12.36;57.04;95331.34;4963502;28;20060;-81
2023/03/23 10:07:18;;;;;;;22.67;11.07;;;;;;;12.06;58.91;95253.72;4969823;28;20034;-78
2023/03/23 10:09:47;;;;;;;13.82;10.02;;;;;;;12.93;55.33;95271.13;4975240;28;20256;-78
2023/03/23 10:12:41;;;;;;;16.20;9.65;;;;;;;14.25;55.06;95293.19;4971956;28;20489;-80
2023/03/23 10:15:17;;;;;;;14.80;9.30;;;;;;;15.39;51.40;95305.66;4977784;28;20512;-80
2023/03/23 10:17:51;;;;;;;13.95;9.68;;;;;;;16.54;46.88;95317.41;4978776;28;20066;-81
2023/03/23 10:20:42;;;;;;;15.73;10.57;;;;;;;16.90;44.82;95161.13;4977703;28;20046;-81
2023/03/23 10:23:20;;;;;;;15.23;10.53;;;;;;;16.90;44.82;95161.13;4957867;28;20284;-83
2023/03/23 10:26:20;;;;;;;14.27;9.27;;;;;;;19.52;39.93;95271.47;4982076;28;20037;-82
2023/03/23 10:28:56;;;;;;;14.23;9.05;;;;;;;19.81;39.60;95313.66;4974581;28;20152;-81
2023/03/23 10:31:24;;;;;;;14.98;9.30;;;;;;;19.83;39.61;95256.84;4978947;28;20038;-80
2023/03/23 10:33:55;;;;;;;13.38;9.10;;;;;;;19.93;40.12;95234.88;4978159;28;20042;-85
2023/03/23 10:36:53;;;;;;;11.48;8.35;;;;;;;20.58;36.98;95319.50;4957043;28;20062;-79
2023/03/23 10:39:22;;;;;;;10.25;8.02;;;;;;;20.72;38.88;95296.53;4956370;28;20152;-79
2023/03/23 10:41:47;;;;;;;13.88;9.23;;;;;;;21.30;38.68;95294.53;4956584;28;20038;-80
2023/03/23 10:44:18;;;;;;;13.27;8.55;;;;;;;21.74;34.33;95305.53;4960534;28;20382;-80
2023/03/23 10:46:53;;;;;;;11.88;8.57;;;;;;;21.56;35.33;95289.59;4961748;28;20129;-80
2023/03/23 10:49:30;;;;;;;14.82;9.25;;;;;;;20.80;35.77;95214.00;4960775;28;20038;-80
2023/03/23 10:52:24;;;;;;;13.98;9.30;;;;;;;21.05;36.19;95303.75;4961708;28;20038;-80
2023/03/23 10:54:58;;;;;;;13.05;8.48;;;;;;;20.77;35.97;95258.56;4982182;28;20141;-79
2023/03/23 10:57:29;;;;;;;12.57;8.13;;;;;;;20.11;35.99;95197.81;4961136;28;20656;-81
2023/03/23 11:00:18;;;;;;;12.13;8.55;;;;;;;20.30;36.98;95233.88;4962823;28;20073;-82
2023/03/23 11:03:06;;;;;;;15.07;8.82;;;;;;;20.32;34.52;95307.03;4959336;28;20058;-84
2023/03/23 11:05:44;;;;;;;14.07;7.72;;;;;;;20.20;34.96;95236.22;4955027;28;20503;-81
2023/03/23 11:08:20;;;;;;;12.75;7.32;;;;;;;20.40;34.26;95267.72;4965061;28;20034;-80
2023/03/23 11:10:52;;;;;;;11.20;7.70;;;;;;;20.34;33.64;95223.25;4965586;28;20049;-83
2023/03/23 11:13:19;;;;;;;16.20;9.43;;;;;;;20.48;34.67;95242.59;4962139;28;20093;-83
2023/03/23 11:15:46;;;;;;;17.25;8.98;;;;;;;20.83;34.89;95293.41;4955146;28;20081;-78
2023/03/23 11:18:20;;;;;;;10.60;8.15;;;;;;;20.50;34.76;95197.25;4954513;28;20865;-80
2023/03/23 11:20:54;;;;;;;17.45;8.57;;;;;;;20.75;35.31;95289.69;4944769;28;20101;-85
2023/03/23 11:23:36;;;;;;;20.20;9.77;;;;;;;20.04;34.69;95172.22;4951082;28;20058;-79
2023/03/23 11:26:20;;;;;;;11.18;8.15;;;;;;;20.98;34.10;95276.56;4954617;28;20505;-79
2023/03/23 11:29:04;;;;;;;12.05;7.47;;;;;;;21.08;35.48;95259.91;4968161;28;20274;-81
2023/03/23 11:31:38;;;;;;;8.80;7.05;;;;;;;21.01;33.02;95252.41;4940815;28;20065;-80
2023/03/23 11:34:15;;;;;;;8.57;6.65;;;;;;;21.58;33.38;95264.16;4950706;28;20506;-80
2023/03/23 11:36:47;;;;;;;10.95;7.68;;;;;;;21.15;33.42;95184.63;4966355;28;20105;-79
2023/03/23 11:39:18;;;;;;;;;;;;;;;21.85;33.52;95269.59;4967124;28;20080;-79